sensor_id;sensor_type;location;lat;lon;timestamp;temperature;humidity
26907;DHT22;14472;56.880;16.658;2024-01-25T00:01:33;5.60;38.20
26907;DHT22;14472;56.880;16.658;2024-01-25T00:03:59;5.40;48.40
26907;DHT22;14472;56.880;16.658;2024-01-25T00:06:24;5.30;54.30
26907;DHT22;14472;56.880;16.658;2024-01-25T00:08:50;5.30;58.90
26907;DHT22;14472;56.880;16.658;2024-01-25T00:11:16;5.50;58.40
26907;DHT22;14472;56.880;16.658;2024-01-25T00:13:42;5.50;57.60
26907;DHT22;14472;56.880;16.658;2024-01-25T00:16:08;5.50;57.40
26907;DHT22;14472;56.880;16.658;2024-01-25T00:18:33;5.50;54.40
26907;DHT22;14472;56.880;16.658;2024-01-25T00:20:59;5.60;49.50
26907;DHT22;14472;56.880;16.658;2024-01-25T00:23:25;5.60;48.60
26907;DHT22;14472;56.880;16.658;2024-01-25T00:25:51;5.80;40.50
26907;DHT22;14472;56.880;16.658;2024-01-25T00:28:17;5.70;35.90
26907;DHT22;14472;56.880;16.658;2024-01-25T00:30:42;5.60;36.10
26907;DHT22;14472;56.880;16.658;2024-01-25T00:33:08;5.50;35.90
26907;DHT22;14472;56.880;16.658;2024-01-25T00:35:34;5.50;36.00
26907;DHT22;14472;56.880;16.658;2024-01-25T00:38:00;5.40;36.10
26907;DHT22;14472;56.880;16.658;2024-01-25T00:40:26;5.60;34.80
26907;DHT22;14472;56.880;16.658;2024-01-25T00:42:52;5.40;35.90
26907;DHT22;14472;56.880;16.658;2024-01-25T00:45:22;5.30;35.80
26907;DHT22;14472;56.880;16.658;2024-01-25T00:47:48;5.30;37.00
26907;DHT22;14472;56.880;16.658;2024-01-25T00:50:14;5.20;40.00
26907;DHT22;14472;56.880;16.658;2024-01-25T00:52:43;5.30;44.40
26907;DHT22;14472;56.880;16.658;2024-01-25T00:55:10;5.40;38.10
26907;DHT22;14472;56.880;16.658;2024-01-25T00:57:36;5.20;37.00
26907;DHT22;14472;56.880;16.658;2024-01-25T01:00:02;5.10;42.00
26907;DHT22;14472;56.880;16.658;2024-01-25T01:02:30;5.10;42.20
26907;DHT22;14472;56.880;16.658;2024-01-25T01:04:59;5.00;48.10
26907;DHT22;14472;56.880;16.658;2024-01-25T01:07:25;5.00;48.00
26907;DHT22;14472;56.880;16.658;2024-01-25T01:09:52;4.90;48.30
26907;DHT22;14472;56.880;16.658;2024-01-25T01:12:17;5.00;48.10
26907;DHT22;14472;56.880;16.658;2024-01-25T01:14:43;5.00;45.60
26907;DHT22;14472;56.880;16.658;2024-01-25T01:17:09;4.80;39.50
26907;DHT22;14472;56.880;16.658;2024-01-25T01:19:35;4.70;47.80
26907;DHT22;14472;56.880;16.658;2024-01-25T01:22:00;4.50;53.70
26907;DHT22;14472;56.880;16.658;2024-01-25T01:24:26;4.50;62.30
26907;DHT22;14472;56.880;16.658;2024-01-25T01:26:52;4.50;66.50
26907;DHT22;14472;56.880;16.658;2024-01-25T01:29:18;4.30;81.00
26907;DHT22;14472;56.880;16.658;2024-01-25T01:31:44;4.30;89.30
26907;DHT22;14472;56.880;16.658;2024-01-25T01:34:10;4.30;90.60
26907;DHT22;14472;56.880;16.658;2024-01-25T01:36:38;4.20;90.80
26907;DHT22;14472;56.880;16.658;2024-01-25T01:39:03;4.20;86.40
26907;DHT22;14472;56.880;16.658;2024-01-25T01:41:29;4.20;86.40
26907;DHT22;14472;56.880;16.658;2024-01-25T01:43:55;4.10;83.60
26907;DHT22;14472;56.880;16.658;2024-01-25T01:48:52;3.80;91.10
26907;DHT22;14472;56.880;16.658;2024-01-25T01:51:18;3.80;91.10
26907;DHT22;14472;56.880;16.658;2024-01-25T01:53:44;3.70;91.00
26907;DHT22;14472;56.880;16.658;2024-01-25T01:56:11;3.60;89.60
26907;DHT22;14472;56.880;16.658;2024-01-25T01:58:37;3.50;90.90
26907;DHT22;14472;56.880;16.658;2024-01-25T02:01:04;3.50;90.20
26907;DHT22;14472;56.880;16.658;2024-01-25T02:03:30;3.50;90.10
26907;DHT22;14472;56.880;16.658;2024-01-25T02:05:56;3.40;90.90
26907;DHT22;14472;56.880;16.658;2024-01-25T02:08:30;3.40;92.00
26907;DHT22;14472;56.880;16.658;2024-01-25T02:10:56;3.30;91.50
26907;DHT22;14472;56.880;16.658;2024-01-25T02:13:22;3.40;93.20
26907;DHT22;14472;56.880;16.658;2024-01-25T02:15:48;3.30;93.70
26907;DHT22;14472;56.880;16.658;2024-01-25T02:18:13;3.40;96.50
26907;DHT22;14472;56.880;16.658;2024-01-25T02:20:40;3.40;90.20
26907;DHT22;14472;56.880;16.658;2024-01-25T02:23:06;3.30;88.10
26907;DHT22;14472;56.880;16.658;2024-01-25T02:25:31;3.30;90.90
26907;DHT22;14472;56.880;16.658;2024-01-25T02:27:57;3.30;89.80
26907;DHT22;14472;56.880;16.658;2024-01-25T02:30:23;3.30;89.60
26907;DHT22;14472;56.880;16.658;2024-01-25T02:32:48;3.20;86.60
26907;DHT22;14472;56.880;16.658;2024-01-25T02:35:14;3.20;87.10
26907;DHT22;14472;56.880;16.658;2024-01-25T02:37:40;3.40;92.50
26907;DHT22;14472;56.880;16.658;2024-01-25T02:40:06;3.40;83.40
26907;DHT22;14472;56.880;16.658;2024-01-25T02:42:32;3.30;77.50
26907;DHT22;14472;56.880;16.658;2024-01-25T02:44:58;3.20;77.40
26907;DHT22;14472;56.880;16.658;2024-01-25T02:47:23;3.30;65.40
26907;DHT22;14472;56.880;16.658;2024-01-25T02:49:49;3.30;58.60
26907;DHT22;14472;56.880;16.658;2024-01-25T02:52:15;3.30;53.90
26907;DHT22;14472;56.880;16.658;2024-01-25T02:54:40;3.30;36.20
26907;DHT22;14472;56.880;16.658;2024-01-25T02:57:06;3.30;29.20
26907;DHT22;14472;56.880;16.658;2024-01-25T02:59:32;3.20;26.70
26907;DHT22;14472;56.880;16.658;2024-01-25T03:01:58;3.20;25.60
26907;DHT22;14472;56.880;16.658;2024-01-25T03:04:23;3.10;18.10
26907;DHT22;14472;56.880;16.658;2024-01-25T03:06:49;3.10;20.20
26907;DHT22;14472;56.880;16.658;2024-01-25T03:09:15;3.10;12.90
26907;DHT22;14472;56.880;16.658;2024-01-25T03:11:41;3.00;12.90
26907;DHT22;14472;56.880;16.658;2024-01-25T03:14:06;3.00;9.00
26907;DHT22;14472;56.880;16.658;2024-01-25T03:16:32;2.90;11.10
26907;DHT22;14472;56.880;16.658;2024-01-25T03:18:57;2.90;10.80
26907;DHT22;14472;56.880;16.658;2024-01-25T03:21:23;2.90;7.50
26907;DHT22;14472;56.880;16.658;2024-01-25T03:23:49;2.80;9.20
26907;DHT22;14472;56.880;16.658;2024-01-25T03:26:15;2.70;11.90
26907;DHT22;14472;56.880;16.658;2024-01-25T03:28:41;2.60;14.40
26907;DHT22;14472;56.880;16.658;2024-01-25T03:31:07;2.60;18.10
26907;DHT22;14472;56.880;16.658;2024-01-25T03:33:32;2.60;17.80
26907;DHT22;14472;56.880;16.658;2024-01-25T03:36:05;2.60;17.80
26907;DHT22;14472;56.880;16.658;2024-01-25T03:38:31;2.60;22.70
26907;DHT22;14472;56.880;16.658;2024-01-25T03:40:57;2.60;25.90
26907;DHT22;14472;56.880;16.658;2024-01-25T03:43:24;2.60;31.60
26907;DHT22;14472;56.880;16.658;2024-01-25T03:45:50;2.50;36.80
26907;DHT22;14472;56.880;16.658;2024-01-25T03:48:16;2.50;49.60
26907;DHT22;14472;56.880;16.658;2024-01-25T03:50:42;2.60;53.90
26907;DHT22;14472;56.880;16.658;2024-01-25T03:53:08;2.60;48.30
26907;DHT22;14472;56.880;16.658;2024-01-25T03:55:34;2.60;48.00
26907;DHT22;14472;56.880;16.658;2024-01-25T03:57:59;2.50;50.40
26907;DHT22;14472;56.880;16.658;2024-01-25T04:00:25;2.70;56.60
26907;DHT22;14472;56.880;16.658;2024-01-25T04:02:51;2.60;48.40
26907;DHT22;14472;56.880;16.658;2024-01-25T04:05:17;2.60;52.10
26907;DHT22;14472;56.880;16.658;2024-01-25T04:07:43;2.60;51.20
26907;DHT22;14472;56.880;16.658;2024-01-25T04:10:09;2.60;51.40
26907;DHT22;14472;56.880;16.658;2024-01-25T04:12:34;2.50;52.10
26907;DHT22;14472;56.880;16.658;2024-01-25T04:15:00;2.50;55.50
26907;DHT22;14472;56.880;16.658;2024-01-25T04:17:26;2.50;58.10
26907;DHT22;14472;56.880;16.658;2024-01-25T04:19:51;2.40;64.20
26907;DHT22;14472;56.880;16.658;2024-01-25T04:22:17;2.40;65.30
26907;DHT22;14472;56.880;16.658;2024-01-25T04:24:43;2.40;64.50
26907;DHT22;14472;56.880;16.658;2024-01-25T04:27:10;2.40;64.50
26907;DHT22;14472;56.880;16.658;2024-01-25T04:29:42;2.40;67.00
26907;DHT22;14472;56.880;16.658;2024-01-25T04:32:08;2.40;70.20
26907;DHT22;14472;56.880;16.658;2024-01-25T04:34:34;2.40;71.30
26907;DHT22;14472;56.880;16.658;2024-01-25T04:37:00;2.40;71.30
26907;DHT22;14472;56.880;16.658;2024-01-25T04:39:26;2.40;71.70
26907;DHT22;14472;56.880;16.658;2024-01-25T04:41:52;2.40;73.50
26907;DHT22;14472;56.880;16.658;2024-01-25T04:44:18;2.40;78.10
26907;DHT22;14472;56.880;16.658;2024-01-25T04:46:43;2.50;81.10
26907;DHT22;14472;56.880;16.658;2024-01-25T04:49:09;2.50;81.40
26907;DHT22;14472;56.880;16.658;2024-01-25T04:51:35;2.40;84.60
26907;DHT22;14472;56.880;16.658;2024-01-25T04:54:00;2.40;84.60
26907;DHT22;14472;56.880;16.658;2024-01-25T04:56:26;2.40;87.10
26907;DHT22;14472;56.880;16.658;2024-01-25T04:58:52;2.40;87.80
26907;DHT22;14472;56.880;16.658;2024-01-25T05:01:18;2.40;90.50
26907;DHT22;14472;56.880;16.658;2024-01-25T05:03:43;2.40;92.50
26907;DHT22;14472;56.880;16.658;2024-01-25T05:06:09;2.40;93.40
26907;DHT22;14472;56.880;16.658;2024-01-25T05:08:35;2.40;93.40
26907;DHT22;14472;56.880;16.658;2024-01-25T05:11:00;2.40;93.50
26907;DHT22;14472;56.880;16.658;2024-01-25T05:13:26;2.40;96.20
26907;DHT22;14472;56.880;16.658;2024-01-25T05:15:52;2.40;99.00
26907;DHT22;14472;56.880;16.658;2024-01-25T05:18:17;2.40;99.90
26907;DHT22;14472;56.880;16.658;2024-01-25T05:20:43;2.40;99.80
26907;DHT22;14472;56.880;16.658;2024-01-25T05:23:09;2.40;99.90
26907;DHT22;14472;56.880;16.658;2024-01-25T05:25:34;2.40;99.90
26907;DHT22;14472;56.880;16.658;2024-01-25T05:28:00;2.40;99.90
26907;DHT22;14472;56.880;16.658;2024-01-25T05:30:27;2.30;99.90
26907;DHT22;14472;56.880;16.658;2024-01-25T05:32:53;2.40;99.90
26907;DHT22;14472;56.880;16.658;2024-01-25T05:35:20;2.30;99.90
26907;DHT22;14472;56.880;16.658;2024-01-25T05:37:45;2.30;99.90
26907;DHT22;14472;56.880;16.658;2024-01-25T05:40:11;2.30;99.90
26907;DHT22;14472;56.880;16.658;2024-01-25T05:42:38;2.30;99.90
26907;DHT22;14472;56.880;16.658;2024-01-25T05:45:04;2.30;99.90
26907;DHT22;14472;56.880;16.658;2024-01-25T05:47:31;2.40;99.90
26907;DHT22;14472;56.880;16.658;2024-01-25T05:49:57;2.40;99.90
26907;DHT22;14472;56.880;16.658;2024-01-25T05:52:23;2.40;99.90
26907;DHT22;14472;56.880;16.658;2024-01-25T05:54:50;2.30;99.90
26907;DHT22;14472;56.880;16.658;2024-01-25T05:57:16;2.40;99.90
26907;DHT22;14472;56.880;16.658;2024-01-25T05:59:42;2.40;99.90
26907;DHT22;14472;56.880;16.658;2024-01-25T06:02:08;2.30;99.90
26907;DHT22;14472;56.880;16.658;2024-01-25T06:04:34;2.30;99.90
26907;DHT22;14472;56.880;16.658;2024-01-25T06:07:00;2.30;99.90
26907;DHT22;14472;56.880;16.658;2024-01-25T06:09:26;2.30;99.90
26907;DHT22;14472;56.880;16.658;2024-01-25T06:11:52;2.30;99.90
26907;DHT22;14472;56.880;16.658;2024-01-25T06:14:17;2.40;99.90
26907;DHT22;14472;56.880;16.658;2024-01-25T06:16:43;2.30;99.90
26907;DHT22;14472;56.880;16.658;2024-01-25T06:19:10;2.30;99.90
26907;DHT22;14472;56.880;16.658;2024-01-25T06:21:36;2.40;99.90
26907;DHT22;14472;56.880;16.658;2024-01-25T06:24:04;2.30;99.90
26907;DHT22;14472;56.880;16.658;2024-01-25T06:26:30;2.30;99.90
26907;DHT22;14472;56.880;16.658;2024-01-25T06:28:56;2.30;99.90
26907;DHT22;14472;56.880;16.658;2024-01-25T06:31:22;2.30;99.90
26907;DHT22;14472;56.880;16.658;2024-01-25T06:33:48;2.30;99.90
26907;DHT22;14472;56.880;16.658;2024-01-25T06:36:16;2.30;99.90
26907;DHT22;14472;56.880;16.658;2024-01-25T06:38:42;2.30;99.90
26907;DHT22;14472;56.880;16.658;2024-01-25T06:41:08;2.30;99.90
26907;DHT22;14472;56.880;16.658;2024-01-25T06:43:34;2.30;99.90
26907;DHT22;14472;56.880;16.658;2024-01-25T06:46:00;2.30;99.90
26907;DHT22;14472;56.880;16.658;2024-01-25T06:48:25;2.30;99.90
26907;DHT22;14472;56.880;16.658;2024-01-25T06:50:51;2.30;99.90
26907;DHT22;14472;56.880;16.658;2024-01-25T06:53:17;2.30;99.90
26907;DHT22;14472;56.880;16.658;2024-01-25T06:55:44;2.30;99.90
26907;DHT22;14472;56.880;16.658;2024-01-25T06:58:10;2.30;99.90
26907;DHT22;14472;56.880;16.658;2024-01-25T07:00:35;2.40;99.90
26907;DHT22;14472;56.880;16.658;2024-01-25T07:03:01;2.30;99.90
26907;DHT22;14472;56.880;16.658;2024-01-25T07:05:26;2.40;99.90
26907;DHT22;14472;56.880;16.658;2024-01-25T07:07:53;2.40;99.90
26907;DHT22;14472;56.880;16.658;2024-01-25T07:10:19;2.30;99.90
26907;DHT22;14472;56.880;16.658;2024-01-25T07:12:45;2.30;99.90
26907;DHT22;14472;56.880;16.658;2024-01-25T07:15:11;2.30;99.90
26907;DHT22;14472;56.880;16.658;2024-01-25T07:17:37;2.30;99.90
26907;DHT22;14472;56.880;16.658;2024-01-25T07:20:03;2.40;99.90
26907;DHT22;14472;56.880;16.658;2024-01-25T07:22:29;2.40;99.90
26907;DHT22;14472;56.880;16.658;2024-01-25T07:24:54;2.30;99.90
26907;DHT22;14472;56.880;16.658;2024-01-25T07:27:20;2.30;99.90
26907;DHT22;14472;56.880;16.658;2024-01-25T07:29:46;2.30;99.90
26907;DHT22;14472;56.880;16.658;2024-01-25T07:32:12;2.40;99.90
26907;DHT22;14472;56.880;16.658;2024-01-25T07:34:37;2.40;99.90
26907;DHT22;14472;56.880;16.658;2024-01-25T07:37:03;2.40;99.90
26907;DHT22;14472;56.880;16.658;2024-01-25T07:39:29;2.30;99.90
26907;DHT22;14472;56.880;16.658;2024-01-25T07:41:55;2.40;99.90
26907;DHT22;14472;56.880;16.658;2024-01-25T07:44:20;2.40;99.90
26907;DHT22;14472;56.880;16.658;2024-01-25T07:46:46;2.40;99.90
26907;DHT22;14472;56.880;16.658;2024-01-25T07:49:12;2.40;99.90
26907;DHT22;14472;56.880;16.658;2024-01-25T07:51:38;2.40;99.90
26907;DHT22;14472;56.880;16.658;2024-01-25T07:54:04;2.40;99.90
26907;DHT22;14472;56.880;16.658;2024-01-25T07:56:30;2.40;99.90
26907;DHT22;14472;56.880;16.658;2024-01-25T07:58:55;2.40;99.90
26907;DHT22;14472;56.880;16.658;2024-01-25T08:01:21;2.40;99.90
26907;DHT22;14472;56.880;16.658;2024-01-25T08:03:47;2.30;99.90
26907;DHT22;14472;56.880;16.658;2024-01-25T08:06:13;2.40;99.90
26907;DHT22;14472;56.880;16.658;2024-01-25T08:08:39;2.40;99.90
26907;DHT22;14472;56.880;16.658;2024-01-25T08:11:05;2.40;99.90
26907;DHT22;14472;56.880;16.658;2024-01-25T08:13:31;2.40;99.90
26907;DHT22;14472;56.880;16.658;2024-01-25T08:15:57;2.40;99.90
26907;DHT22;14472;56.880;16.658;2024-01-25T08:18:22;2.40;99.90
26907;DHT22;14472;56.880;16.658;2024-01-25T08:20:49;2.40;99.90
26907;DHT22;14472;56.880;16.658;2024-01-25T08:23:15;2.50;99.90
26907;DHT22;14472;56.880;16.658;2024-01-25T08:25:41;2.40;99.90
26907;DHT22;14472;56.880;16.658;2024-01-25T08:28:07;2.40;99.90
26907;DHT22;14472;56.880;16.658;2024-01-25T08:30:33;2.50;99.90
26907;DHT22;14472;56.880;16.658;2024-01-25T08:32:59;2.50;99.90
26907;DHT22;14472;56.880;16.658;2024-01-25T08:35:25;2.50;99.90
26907;DHT22;14472;56.880;16.658;2024-01-25T08:37:51;2.50;99.90
26907;DHT22;14472;56.880;16.658;2024-01-25T08:40:17;2.50;99.90
26907;DHT22;14472;56.880;16.658;2024-01-25T08:42:42;2.50;99.90
26907;DHT22;14472;56.880;16.658;2024-01-25T08:45:08;2.60;99.90
26907;DHT22;14472;56.880;16.658;2024-01-25T08:47:35;2.60;99.90
26907;DHT22;14472;56.880;16.658;2024-01-25T08:50:01;2.60;98.30
26907;DHT22;14472;56.880;16.658;2024-01-25T08:52:27;2.50;99.00
26907;DHT22;14472;56.880;16.658;2024-01-25T08:54:52;2.50;98.60
26907;DHT22;14472;56.880;16.658;2024-01-25T08:57:18;2.50;99.90
26907;DHT22;14472;56.880;16.658;2024-01-25T08:59:44;2.40;99.90
26907;DHT22;14472;56.880;16.658;2024-01-25T09:02:09;2.50;99.90
26907;DHT22;14472;56.880;16.658;2024-01-25T09:04:35;2.50;99.90
26907;DHT22;14472;56.880;16.658;2024-01-25T09:07:02;2.50;99.90
26907;DHT22;14472;56.880;16.658;2024-01-25T09:09:27;2.50;99.90
26907;DHT22;14472;56.880;16.658;2024-01-25T09:11:53;2.60;99.90
26907;DHT22;14472;56.880;16.658;2024-01-25T09:14:19;2.50;99.90
26907;DHT22;14472;56.880;16.658;2024-01-25T09:16:45;2.50;99.90
26907;DHT22;14472;56.880;16.658;2024-01-25T09:19:11;2.50;99.90
26907;DHT22;14472;56.880;16.658;2024-01-25T09:21:39;2.40;99.90
26907;DHT22;14472;56.880;16.658;2024-01-25T09:24:06;2.40;99.90
26907;DHT22;14472;56.880;16.658;2024-01-25T09:26:33;2.50;99.80
26907;DHT22;14472;56.880;16.658;2024-01-25T09:28:58;2.50;99.90
26907;DHT22;14472;56.880;16.658;2024-01-25T09:31:24;2.40;99.60
26907;DHT22;14472;56.880;16.658;2024-01-25T09:33:49;2.50;98.00
26907;DHT22;14472;56.880;16.658;2024-01-25T09:36:16;2.50;99.00
26907;DHT22;14472;56.880;16.658;2024-01-25T09:38:42;2.50;98.50
26907;DHT22;14472;56.880;16.658;2024-01-25T09:41:08;2.50;96.30
26907;DHT22;14472;56.880;16.658;2024-01-25T09:43:35;2.50;97.40
26907;DHT22;14472;56.880;16.658;2024-01-25T09:46:02;2.50;96.30
26907;DHT22;14472;56.880;16.658;2024-01-25T09:48:27;2.50;94.70
26907;DHT22;14472;56.880;16.658;2024-01-25T09:50:55;2.50;96.80
26907;DHT22;14472;56.880;16.658;2024-01-25T09:53:22;2.50;96.20
26907;DHT22;14472;56.880;16.658;2024-01-25T09:56:05;2.50;96.20
26907;DHT22;14472;56.880;16.658;2024-01-25T09:58:43;2.40;97.90
26907;DHT22;14472;56.880;16.658;2024-01-25T10:01:13;2.40;98.30
26907;DHT22;14472;56.880;16.658;2024-01-25T10:03:43;2.40;99.00
26907;DHT22;14472;56.880;16.658;2024-01-25T10:06:13;2.40;97.00
26907;DHT22;14472;56.880;16.658;2024-01-25T10:08:39;2.50;96.20
26907;DHT22;14472;56.880;16.658;2024-01-25T10:11:05;2.60;95.40
26907;DHT22;14472;56.880;16.658;2024-01-25T10:13:31;2.60;92.30
26907;DHT22;14472;56.880;16.658;2024-01-25T10:15:57;2.50;88.70
26907;DHT22;14472;56.880;16.658;2024-01-25T10:18:24;2.60;93.50
26907;DHT22;14472;56.880;16.658;2024-01-25T10:20:54;2.70;90.90
26907;DHT22;14472;56.880;16.658;2024-01-25T10:23:20;2.60;85.40
26907;DHT22;14472;56.880;16.658;2024-01-25T10:25:47;2.60;84.90
26907;DHT22;14472;56.880;16.658;2024-01-25T10:28:13;2.70;84.90
26907;DHT22;14472;56.880;16.658;2024-01-25T10:30:39;2.60;78.50
26907;DHT22;14472;56.880;16.658;2024-01-25T10:33:04;2.60;78.50
26907;DHT22;14472;56.880;16.658;2024-01-25T10:35:31;2.60;84.40
26907;DHT22;14472;56.880;16.658;2024-01-25T10:37:57;2.60;84.80
26907;DHT22;14472;56.880;16.658;2024-01-25T10:40:23;2.60;88.60
26907;DHT22;14472;56.880;16.658;2024-01-25T10:42:50;2.60;88.50
26907;DHT22;14472;56.880;16.658;2024-01-25T10:45:16;2.60;82.60
26907;DHT22;14472;56.880;16.658;2024-01-25T10:47:42;2.50;76.80
26907;DHT22;14472;56.880;16.658;2024-01-25T10:50:11;2.60;78.30
26907;DHT22;14472;56.880;16.658;2024-01-25T10:52:40;2.60;78.20
26907;DHT22;14472;56.880;16.658;2024-01-25T10:55:06;2.70;78.40
26907;DHT22;14472;56.880;16.658;2024-01-25T10:57:37;2.70;79.10
26907;DHT22;14472;56.880;16.658;2024-01-25T11:00:06;2.70;78.40
26907;DHT22;14472;56.880;16.658;2024-01-25T11:02:35;2.70;76.30
26907;DHT22;14472;56.880;16.658;2024-01-25T11:05:00;2.70;77.90
26907;DHT22;14472;56.880;16.658;2024-01-25T11:07:28;2.70;75.90
26907;DHT22;14472;56.880;16.658;2024-01-25T11:09:53;2.80;66.40
26907;DHT22;14472;56.880;16.658;2024-01-25T11:12:20;2.80;64.90
26907;DHT22;14472;56.880;16.658;2024-01-25T11:14:53;2.80;64.00
26907;DHT22;14472;56.880;16.658;2024-01-25T11:17:19;3.00;64.70
26907;DHT22;14472;56.880;16.658;2024-01-25T11:19:47;3.00;46.50
26907;DHT22;14472;56.880;16.658;2024-01-25T11:22:13;3.00;46.00
26907;DHT22;14472;56.880;16.658;2024-01-25T11:24:39;3.00;48.10
26907;DHT22;14472;56.880;16.658;2024-01-25T11:27:05;3.00;48.70
26907;DHT22;14472;56.880;16.658;2024-01-25T11:29:32;3.10;52.50
26907;DHT22;14472;56.880;16.658;2024-01-25T11:31:58;3.20;44.10
26907;DHT22;14472;56.880;16.658;2024-01-25T11:34:24;3.10;43.90
26907;DHT22;14472;56.880;16.658;2024-01-25T11:36:50;3.10;42.20
26907;DHT22;14472;56.880;16.658;2024-01-25T11:39:16;3.00;45.70
26907;DHT22;14472;56.880;16.658;2024-01-25T11:41:43;3.10;45.20
26907;DHT22;14472;56.880;16.658;2024-01-25T11:44:10;3.10;42.30
26907;DHT22;14472;56.880;16.658;2024-01-25T11:46:36;3.00;42.50
26907;DHT22;14472;56.880;16.658;2024-01-25T11:49:02;3.00;40.60
26907;DHT22;14472;56.880;16.658;2024-01-25T11:51:28;3.00;40.30
26907;DHT22;14472;56.880;16.658;2024-01-25T11:53:54;3.20;37.90
26907;DHT22;14472;56.880;16.658;2024-01-25T11:56:32;3.10;34.10
26907;DHT22;14472;56.880;16.658;2024-01-25T11:58:59;3.00;40.20
26907;DHT22;14472;56.880;16.658;2024-01-25T12:01:26;3.00;46.40
26907;DHT22;14472;56.880;16.658;2024-01-25T12:03:53;3.00;52.20
26907;DHT22;14472;56.880;16.658;2024-01-25T12:06:19;3.20;43.70
26907;DHT22;14472;56.880;16.658;2024-01-25T12:08:45;3.20;36.20
26907;DHT22;14472;56.880;16.658;2024-01-25T12:11:14;3.20;40.30
26907;DHT22;14472;56.880;16.658;2024-01-25T12:13:43;3.10;41.00
26907;DHT22;14472;56.880;16.658;2024-01-25T12:16:10;3.20;46.50
26907;DHT22;14472;56.880;16.658;2024-01-25T12:18:37;3.30;37.90
26907;DHT22;14472;56.880;16.658;2024-01-25T12:21:04;3.20;33.70
26907;DHT22;14472;56.880;16.658;2024-01-25T12:23:40;3.10;35.40
26907;DHT22;14472;56.880;16.658;2024-01-25T12:26:07;3.10;40.40
26907;DHT22;14472;56.880;16.658;2024-01-25T12:28:34;3.20;44.80
26907;DHT22;14472;56.880;16.658;2024-01-25T12:31:00;3.30;37.20
26907;DHT22;14472;56.880;16.658;2024-01-25T12:33:27;3.30;40.60
26907;DHT22;14472;56.880;16.658;2024-01-25T12:35:53;3.30;37.60
26907;DHT22;14472;56.880;16.658;2024-01-25T12:38:25;3.30;37.40
26907;DHT22;14472;56.880;16.658;2024-01-25T12:40:51;3.40;38.50
26907;DHT22;14472;56.880;16.658;2024-01-25T12:43:18;3.40;31.10
26907;DHT22;14472;56.880;16.658;2024-01-25T12:45:44;3.30;30.80
26907;DHT22;14472;56.880;16.658;2024-01-25T12:48:10;3.30;32.60
26907;DHT22;14472;56.880;16.658;2024-01-25T12:50:36;3.20;34.30
26907;DHT22;14472;56.880;16.658;2024-01-25T12:53:03;3.40;32.60
26907;DHT22;14472;56.880;16.658;2024-01-25T12:55:30;3.40;28.50
26907;DHT22;14472;56.880;16.658;2024-01-25T12:57:56;3.30;26.90
26907;DHT22;14472;56.880;16.658;2024-01-25T13:00:22;3.20;28.40
26907;DHT22;14472;56.880;16.658;2024-01-25T13:02:48;3.20;31.60
26907;DHT22;14472;56.880;16.658;2024-01-25T13:05:14;3.40;34.30
26907;DHT22;14472;56.880;16.658;2024-01-25T13:07:40;3.40;24.70
26907;DHT22;14472;56.880;16.658;2024-01-25T13:10:08;3.40;21.30
26907;DHT22;14472;56.880;16.658;2024-01-25T13:12:33;3.30;23.10
26907;DHT22;14472;56.880;16.658;2024-01-25T13:14:59;3.30;23.20
26907;DHT22;14472;56.880;16.658;2024-01-25T13:17:25;3.50;23.10
26907;DHT22;14472;56.880;16.658;2024-01-25T13:19:53;3.60;16.00
26907;DHT22;14472;56.880;16.658;2024-01-25T13:22:19;3.40;15.50
26907;DHT22;14472;56.880;16.658;2024-01-25T13:24:46;3.30;15.70
26907;DHT22;14472;56.880;16.658;2024-01-25T13:27:12;3.30;16.60
26907;DHT22;14472;56.880;16.658;2024-01-25T13:29:38;3.40;20.00
26907;DHT22;14472;56.880;16.658;2024-01-25T13:32:04;3.50;14.30
26907;DHT22;14472;56.880;16.658;2024-01-25T13:34:30;3.40;13.10
26907;DHT22;14472;56.880;16.658;2024-01-25T13:36:55;3.40;15.40
26907;DHT22;14472;56.880;16.658;2024-01-25T13:39:21;3.40;12.10
26907;DHT22;14472;56.880;16.658;2024-01-25T13:41:47;3.40;13.10
26907;DHT22;14472;56.880;16.658;2024-01-25T13:44:16;3.40;12.00
26907;DHT22;14472;56.880;16.658;2024-01-25T13:46:42;3.50;10.90
26907;DHT22;14472;56.880;16.658;2024-01-25T13:49:08;3.40;10.80
26907;DHT22;14472;56.880;16.658;2024-01-25T13:51:34;3.20;13.20
26907;DHT22;14472;56.880;16.658;2024-01-25T13:54:00;3.10;18.90
26907;DHT22;14472;56.880;16.658;2024-01-25T13:56:25;3.00;23.30
26907;DHT22;14472;56.880;16.658;2024-01-25T13:58:51;3.20;24.00
26907;DHT22;14472;56.880;16.658;2024-01-25T14:01:17;3.10;21.10
26907;DHT22;14472;56.880;16.658;2024-01-25T14:03:43;3.00;18.10
26907;DHT22;14472;56.880;16.658;2024-01-25T14:06:09;3.00;20.30
26907;DHT22;14472;56.880;16.658;2024-01-25T14:08:37;2.90;23.20
26907;DHT22;14472;56.880;16.658;2024-01-25T14:11:04;2.90;23.20
26907;DHT22;14472;56.880;16.658;2024-01-25T14:13:31;2.90;23.20
26907;DHT22;14472;56.880;16.658;2024-01-25T14:15:57;2.90;23.10
26907;DHT22;14472;56.880;16.658;2024-01-25T14:18:24;2.90;20.30
26907;DHT22;14472;56.880;16.658;2024-01-25T14:20:50;3.00;21.60
26907;DHT22;14472;56.880;16.658;2024-01-25T14:23:16;2.90;20.40
26907;DHT22;14472;56.880;16.658;2024-01-25T14:25:41;2.90;21.70
26907;DHT22;14472;56.880;16.658;2024-01-25T14:28:07;2.80;21.50
26907;DHT22;14472;56.880;16.658;2024-01-25T14:30:33;2.70;23.00
26907;DHT22;14472;56.880;16.658;2024-01-25T14:32:58;2.80;27.20
26907;DHT22;14472;56.880;16.658;2024-01-25T14:35:24;2.70;28.10
26907;DHT22;14472;56.880;16.658;2024-01-25T14:37:56;2.70;28.10
26907;DHT22;14472;56.880;16.658;2024-01-25T14:40:22;2.70;31.10
26907;DHT22;14472;56.880;16.658;2024-01-25T14:42:48;2.70;36.90
26907;DHT22;14472;56.880;16.658;2024-01-25T14:45:14;2.80;33.90
26907;DHT22;14472;56.880;16.658;2024-01-25T14:47:40;2.60;36.60
26907;DHT22;14472;56.880;16.658;2024-01-25T14:50:06;2.60;42.90
26907;DHT22;14472;56.880;16.658;2024-01-25T14:52:32;2.50;44.60
26907;DHT22;14472;56.880;16.658;2024-01-25T14:55:00;2.40;46.60
26907;DHT22;14472;56.880;16.658;2024-01-25T14:57:26;2.30;51.90
26907;DHT22;14472;56.880;16.658;2024-01-25T14:59:52;2.30;57.30
26907;DHT22;14472;56.880;16.658;2024-01-25T15:02:17;2.20;63.00
26907;DHT22;14472;56.880;16.658;2024-01-25T15:04:44;2.20;64.40
26907;DHT22;14472;56.880;16.658;2024-01-25T15:07:09;2.20;71.20
26907;DHT22;14472;56.880;16.658;2024-01-25T15:09:35;2.10;77.80
26907;DHT22;14472;56.880;16.658;2024-01-25T15:12:01;2.00;84.30
26907;DHT22;14472;56.880;16.658;2024-01-25T15:14:27;2.00;92.60
26907;DHT22;14472;56.880;16.658;2024-01-25T15:16:52;2.00;96.00
26907;DHT22;14472;56.880;16.658;2024-01-25T15:19:18;2.00;97.60
26907;DHT22;14472;56.880;16.658;2024-01-25T15:21:44;1.90;97.00
26907;DHT22;14472;56.880;16.658;2024-01-25T15:24:09;1.90;98.70
26907;DHT22;14472;56.880;16.658;2024-01-25T15:26:39;1.90;99.50